sensor_id;sensor_type;location;lat;lon;timestamp;temperature;humidity
38090;DHT22;23904;52.322;10.232;2023-04-25T00:02:02;8.60;99.90
38090;DHT22;23904;52.322;10.232;2023-04-25T00:04:28;8.50;99.90
38090;DHT22;23904;52.322;10.232;2023-04-25T00:06:55;8.60;99.90
38090;DHT22;23904;52.322;10.232;2023-04-25T00:09:21;8.60;99.90
38090;DHT22;23904;52.322;10.232;2023-04-25T00:11:47;8.50;99.90
38090;DHT22;23904;52.322;10.232;2023-04-25T00:14:13;8.60;99.90
38090;DHT22;23904;52.322;10.232;2023-04-25T00:16:39;8.50;99.90
38090;DHT22;23904;52.322;10.232;2023-04-25T00:19:06;8.50;99.90
38090;DHT22;23904;52.322;10.232;2023-04-25T00:21:32;8.50;99.90
38090;DHT22;23904;52.322;10.232;2023-04-25T00:23:58;8.50;99.90
38090;DHT22;23904;52.322;10.232;2023-04-25T00:26:25;8.40;99.90
38090;DHT22;23904;52.322;10.232;2023-04-25T00:28:52;8.40;99.90
38090;DHT22;23904;52.322;10.232;2023-04-25T00:31:18;8.40;99.90
38090;DHT22;23904;52.322;10.232;2023-04-25T00:33:43;8.40;99.90
38090;DHT22;23904;52.322;10.232;2023-04-25T00:36:09;8.50;99.90
38090;DHT22;23904;52.322;10.232;2023-04-25T00:38:35;8.50;99.90
38090;DHT22;23904;52.322;10.232;2023-04-25T00:41:01;8.40;99.90
38090;DHT22;23904;52.322;10.232;2023-04-25T00:43:27;8.40;99.90
38090;DHT22;23904;52.322;10.232;2023-04-25T00:45:53;8.40;99.90
38090;DHT22;23904;52.322;10.232;2023-04-25T00:48:21;8.40;99.90
38090;DHT22;23904;52.322;10.232;2023-04-25T00:50:52;8.30;99.90
38090;DHT22;23904;52.322;10.232;2023-04-25T00:53:23;8.40;99.90
38090;DHT22;23904;52.322;10.232;2023-04-25T00:55:50;8.30;99.90
38090;DHT22;23904;52.322;10.232;2023-04-25T00:58:17;8.20;99.90
38090;DHT22;23904;52.322;10.232;2023-04-25T01:00:48;8.10;99.90
38090;DHT22;23904;52.322;10.232;2023-04-25T01:03:15;8.00;99.90
38090;DHT22;23904;52.322;10.232;2023-04-25T01:05:42;8.10;99.90
38090;DHT22;23904;52.322;10.232;2023-04-25T01:08:08;8.10;99.90
38090;DHT22;23904;52.322;10.232;2023-04-25T01:10:34;8.20;99.90
38090;DHT22;23904;52.322;10.232;2023-04-25T01:12:59;8.20;99.90
38090;DHT22;23904;52.322;10.232;2023-04-25T01:15:25;8.20;99.90
38090;DHT22;23904;52.322;10.232;2023-04-25T01:17:50;8.20;99.90
38090;DHT22;23904;52.322;10.232;2023-04-25T01:20:16;8.20;99.90
38090;DHT22;23904;52.322;10.232;2023-04-25T01:22:42;8.10;99.90
38090;DHT22;23904;52.322;10.232;2023-04-25T01:25:08;8.20;99.90
38090;DHT22;23904;52.322;10.232;2023-04-25T01:27:36;8.10;99.90
38090;DHT22;23904;52.322;10.232;2023-04-25T01:30:02;8.20;99.90
38090;DHT22;23904;52.322;10.232;2023-04-25T01:32:29;8.20;99.90
38090;DHT22;23904;52.322;10.232;2023-04-25T01:35:10;8.20;99.90
38090;DHT22;23904;52.322;10.232;2023-04-25T01:37:41;8.20;99.90
38090;DHT22;23904;52.322;10.232;2023-04-25T01:40:09;8.20;99.90
38090;DHT22;23904;52.322;10.232;2023-04-25T01:42:37;8.20;99.90
38090;DHT22;23904;52.322;10.232;2023-04-25T01:45:04;8.20;99.90
38090;DHT22;23904;52.322;10.232;2023-04-25T01:47:31;8.20;99.90
38090;DHT22;23904;52.322;10.232;2023-04-25T01:49:56;8.10;99.90
38090;DHT22;23904;52.322;10.232;2023-04-25T01:52:22;8.10;99.90
38090;DHT22;23904;52.322;10.232;2023-04-25T01:54:47;8.20;99.90
38090;DHT22;23904;52.322;10.232;2023-04-25T01:57:14;8.20;99.90
38090;DHT22;23904;52.322;10.232;2023-04-25T01:59:41;8.20;99.90
38090;DHT22;23904;52.322;10.232;2023-04-25T02:02:07;8.20;99.90
38090;DHT22;23904;52.322;10.232;2023-04-25T02:04:32;8.10;99.90
38090;DHT22;23904;52.322;10.232;2023-04-25T02:06:58;8.20;99.90
38090;DHT22;23904;52.322;10.232;2023-04-25T02:09:24;8.10;99.90
38090;DHT22;23904;52.322;10.232;2023-04-25T02:11:50;8.20;99.90
38090;DHT22;23904;52.322;10.232;2023-04-25T02:14:15;8.10;99.90
38090;DHT22;23904;52.322;10.232;2023-04-25T02:16:41;8.10;99.90
38090;DHT22;23904;52.322;10.232;2023-04-25T02:19:09;8.00;99.90
38090;DHT22;23904;52.322;10.232;2023-04-25T02:21:35;8.00;99.90
38090;DHT22;23904;52.322;10.232;2023-04-25T02:24:01;8.00;99.90
38090;DHT22;23904;52.322;10.232;2023-04-25T02:26:27;8.00;99.90
38090;DHT22;23904;52.322;10.232;2023-04-25T02:28:53;8.00;99.90
38090;DHT22;23904;52.322;10.232;2023-04-25T02:31:19;8.00;99.90
38090;DHT22;23904;52.322;10.232;2023-04-25T02:33:44;7.90;99.90
38090;DHT22;23904;52.322;10.232;2023-04-25T02:36:10;8.00;99.90
38090;DHT22;23904;52.322;10.232;2023-04-25T02:38:35;8.00;99.90
38090;DHT22;23904;52.322;10.232;2023-04-25T02:41:01;7.90;99.90
38090;DHT22;23904;52.322;10.232;2023-04-25T02:43:27;8.00;99.90
38090;DHT22;23904;52.322;10.232;2023-04-25T02:45:52;8.00;99.90
38090;DHT22;23904;52.322;10.232;2023-04-25T02:48:18;7.90;99.90
38090;DHT22;23904;52.322;10.232;2023-04-25T02:50:43;8.00;99.90
38090;DHT22;23904;52.322;10.232;2023-04-25T02:53:09;8.00;99.90
38090;DHT22;23904;52.322;10.232;2023-04-25T02:55:34;7.90;99.90
38090;DHT22;23904;52.322;10.232;2023-04-25T02:58:00;7.80;99.90
38090;DHT22;23904;52.322;10.232;2023-04-25T03:00:25;7.90;99.90
38090;DHT22;23904;52.322;10.232;2023-04-25T03:02:51;7.90;99.90
38090;DHT22;23904;52.322;10.232;2023-04-25T03:05:17;7.90;99.90
38090;DHT22;23904;52.322;10.232;2023-04-25T03:07:43;7.90;99.90
38090;DHT22;23904;52.322;10.232;2023-04-25T03:10:10;7.90;99.90
38090;DHT22;23904;52.322;10.232;2023-04-25T03:12:36;7.70;99.90
38090;DHT22;23904;52.322;10.232;2023-04-25T03:15:03;7.60;99.90
38090;DHT22;23904;52.322;10.232;2023-04-25T03:17:29;7.70;99.90
38090;DHT22;23904;52.322;10.232;2023-04-25T03:19:55;7.60;99.90
38090;DHT22;23904;52.322;10.232;2023-04-25T03:22:22;7.70;99.90
38090;DHT22;23904;52.322;10.232;2023-04-25T03:24:49;7.70;99.90
38090;DHT22;23904;52.322;10.232;2023-04-25T03:27:17;7.70;99.90
38090;DHT22;23904;52.322;10.232;2023-04-25T03:29:42;7.80;99.90
38090;DHT22;23904;52.322;10.232;2023-04-25T03:32:08;7.80;99.90
38090;DHT22;23904;52.322;10.232;2023-04-25T03:34:34;7.80;99.90
38090;DHT22;23904;52.322;10.232;2023-04-25T03:37:00;7.80;99.90
38090;DHT22;23904;52.322;10.232;2023-04-25T03:39:26;7.80;99.90
38090;DHT22;23904;52.322;10.232;2023-04-25T03:41:52;7.70;99.90
38090;DHT22;23904;52.322;10.232;2023-04-25T03:44:18;7.60;99.90
38090;DHT22;23904;52.322;10.232;2023-04-25T03:46:43;7.70;99.90
38090;DHT22;23904;52.322;10.232;2023-04-25T03:49:09;7.50;99.90
38090;DHT22;23904;52.322;10.232;2023-04-25T03:51:34;7.60;99.90
38090;DHT22;23904;52.322;10.232;2023-04-25T03:54:00;7.60;99.90
38090;DHT22;23904;52.322;10.232;2023-04-25T03:56:26;7.60;99.90
38090;DHT22;23904;52.322;10.232;2023-04-25T03:58:53;7.50;99.90
38090;DHT22;23904;52.322;10.232;2023-04-25T04:01:19;7.50;99.90
38090;DHT22;23904;52.322;10.232;2023-04-25T04:03:45;7.40;99.90
38090;DHT22;23904;52.322;10.232;2023-04-25T04:06:11;7.40;99.90
38090;DHT22;23904;52.322;10.232;2023-04-25T04:08:36;7.40;99.90
38090;DHT22;23904;52.322;10.232;2023-04-25T04:11:02;7.30;99.90
38090;DHT22;23904;52.322;10.232;2023-04-25T04:13:28;7.30;99.90
38090;DHT22;23904;52.322;10.232;2023-04-25T04:15:55;7.30;99.90
38090;DHT22;23904;52.322;10.232;2023-04-25T04:18:24;7.40;99.90
38090;DHT22;23904;52.322;10.232;2023-04-25T04:20:50;7.50;99.90
38090;DHT22;23904;52.322;10.232;2023-04-25T04:23:16;7.50;99.90
38090;DHT22;23904;52.322;10.232;2023-04-25T04:25:41;7.50;99.90
38090;DHT22;23904;52.322;10.232;2023-04-25T04:28:07;7.50;99.90
38090;DHT22;23904;52.322;10.232;2023-04-25T04:30:33;7.40;99.90
38090;DHT22;23904;52.322;10.232;2023-04-25T04:33:01;7.30;99.90
38090;DHT22;23904;52.322;10.232;2023-04-25T04:35:27;7.30;99.90
38090;DHT22;23904;52.322;10.232;2023-04-25T04:37:53;7.30;99.90
38090;DHT22;23904;52.322;10.232;2023-04-25T04:40:19;7.30;99.90
38090;DHT22;23904;52.322;10.232;2023-04-25T04:42:45;7.20;99.90
38090;DHT22;23904;52.322;10.232;2023-04-25T04:45:11;7.20;99.90
38090;DHT22;23904;52.322;10.232;2023-04-25T04:47:38;7.30;99.90
38090;DHT22;23904;52.322;10.232;2023-04-25T04:50:06;7.20;99.90
38090;DHT22;23904;52.322;10.232;2023-04-25T04:52:35;7.30;99.90
38090;DHT22;23904;52.322;10.232;2023-04-25T04:55:02;7.40;99.90
38090;DHT22;23904;52.322;10.232;2023-04-25T04:57:28;7.40;99.90
38090;DHT22;23904;52.322;10.232;2023-04-25T04:59:54;7.30;99.90
38090;DHT22;23904;52.322;10.232;2023-04-25T05:02:20;7.30;99.90
38090;DHT22;23904;52.322;10.232;2023-04-25T05:04:46;7.20;99.90
38090;DHT22;23904;52.322;10.232;2023-04-25T05:07:13;7.20;99.90
38090;DHT22;23904;52.322;10.232;2023-04-25T05:09:38;7.40;99.90
38090;DHT22;23904;52.322;10.232;2023-04-25T05:12:04;7.40;99.90
38090;DHT22;23904;52.322;10.232;2023-04-25T05:14:30;7.40;99.90
38090;DHT22;23904;52.322;10.232;2023-04-25T05:16:56;7.40;99.90
38090;DHT22;23904;52.322;10.232;2023-04-25T05:19:21;7.50;99.90
38090;DHT22;23904;52.322;10.232;2023-04-25T05:21:47;7.50;99.90
38090;DHT22;23904;52.322;10.232;2023-04-25T05:24:13;7.50;99.90
38090;DHT22;23904;52.322;10.232;2023-04-25T05:26:38;7.60;99.90
38090;DHT22;23904;52.322;10.232;2023-04-25T05:29:04;7.70;99.90
38090;DHT22;23904;52.322;10.232;2023-04-25T05:31:30;7.60;99.90
38090;DHT22;23904;52.322;10.232;2023-04-25T05:33:57;7.60;99.90
38090;DHT22;23904;52.322;10.232;2023-04-25T05:36:23;7.70;99.90
38090;DHT22;23904;52.322;10.232;2023-04-25T05:38:48;7.70;99.90
38090;DHT22;23904;52.322;10.232;2023-04-25T05:41:14;7.70;99.90
38090;DHT22;23904;52.322;10.232;2023-04-25T05:43:39;7.70;99.90
38090;DHT22;23904;52.322;10.232;2023-04-25T05:46:10;7.80;99.90
38090;DHT22;23904;52.322;10.232;2023-04-25T05:48:37;7.70;99.90
38090;DHT22;23904;52.322;10.232;2023-04-25T05:51:03;7.70;99.90
38090;DHT22;23904;52.322;10.232;2023-04-25T05:53:28;7.60;99.90
38090;DHT22;23904;52.322;10.232;2023-04-25T05:55:54;7.60;99.90
38090;DHT22;23904;52.322;10.232;2023-04-25T05:58:20;7.70;99.90
38090;DHT22;23904;52.322;10.232;2023-04-25T06:00:45;7.70;99.90
38090;DHT22;23904;52.322;10.232;2023-04-25T06:03:11;7.70;99.90
38090;DHT22;23904;52.322;10.232;2023-04-25T06:05:40;7.80;99.90
38090;DHT22;23904;52.322;10.232;2023-04-25T06:08:09;8.00;99.90
38090;DHT22;23904;52.322;10.232;2023-04-25T06:10:36;8.00;99.90
38090;DHT22;23904;52.322;10.232;2023-04-25T06:13:02;7.80;99.90
38090;DHT22;23904;52.322;10.232;2023-04-25T06:15:28;7.90;99.90
38090;DHT22;23904;52.322;10.232;2023-04-25T06:17:54;8.00;99.90
38090;DHT22;23904;52.322;10.232;2023-04-25T06:20:20;8.10;99.90
38090;DHT22;23904;52.322;10.232;2023-04-25T06:22:48;8.20;99.90
38090;DHT22;23904;52.322;10.232;2023-04-25T06:25:15;8.30;99.90
38090;DHT22;23904;52.322;10.232;2023-04-25T06:27:41;8.30;99.90
38090;DHT22;23904;52.322;10.232;2023-04-25T06:30:07;8.40;99.90
38090;DHT22;23904;52.322;10.232;2023-04-25T06:32:33;8.50;99.90
38090;DHT22;23904;52.322;10.232;2023-04-25T06:35:00;8.50;99.90
38090;DHT22;23904;52.322;10.232;2023-04-25T06:37:27;8.50;99.90
38090;DHT22;23904;52.322;10.232;2023-04-25T06:39:52;8.60;99.90
38090;DHT22;23904;52.322;10.232;2023-04-25T06:42:18;8.60;99.90
38090;DHT22;23904;52.322;10.232;2023-04-25T06:44:43;8.70;99.90
38090;DHT22;23904;52.322;10.232;2023-04-25T06:47:09;8.60;99.90
38090;DHT22;23904;52.322;10.232;2023-04-25T06:49:34;8.60;99.90
38090;DHT22;23904;52.322;10.232;2023-04-25T06:52:00;8.60;99.90
38090;DHT22;23904;52.322;10.232;2023-04-25T06:54:26;8.60;99.90
38090;DHT22;23904;52.322;10.232;2023-04-25T06:56:54;8.90;99.90
38090;DHT22;23904;52.322;10.232;2023-04-25T06:59:19;9.00;99.90
38090;DHT22;23904;52.322;10.232;2023-04-25T07:01:45;9.10;99.90
38090;DHT22;23904;52.322;10.232;2023-04-25T07:04:10;8.90;99.90
38090;DHT22;23904;52.322;10.232;2023-04-25T07:06:36;8.90;99.90
38090;DHT22;23904;52.322;10.232;2023-04-25T07:09:10;8.90;99.90
38090;DHT22;23904;52.322;10.232;2023-04-25T07:11:36;8.80;99.90
38090;DHT22;23904;52.322;10.232;2023-04-25T07:14:02;8.60;99.90
38090;DHT22;23904;52.322;10.232;2023-04-25T07:16:28;8.60;99.90
38090;DHT22;23904;52.322;10.232;2023-04-25T07:18:54;8.60;99.30
38090;DHT22;23904;52.322;10.232;2023-04-25T07:21:19;8.80;99.90
38090;DHT22;23904;52.322;10.232;2023-04-25T07:23:45;9.10;99.80
38090;DHT22;23904;52.322;10.232;2023-04-25T07:26:11;9.30;99.10
38090;DHT22;23904;52.322;10.232;2023-04-25T07:28:36;9.00;98.30
38090;DHT22;23904;52.322;10.232;2023-04-25T07:31:02;8.90;99.50
38090;DHT22;23904;52.322;10.232;2023-04-25T07:33:28;8.90;99.10
38090;DHT22;23904;52.322;10.232;2023-04-25T07:35:54;8.90;98.10
38090;DHT22;23904;52.322;10.232;2023-04-25T07:38:21;9.00;98.30
38090;DHT22;23904;52.322;10.232;2023-04-25T07:40:48;9.20;98.80
38090;DHT22;23904;52.322;10.232;2023-04-25T07:43:14;9.40;98.60
38090;DHT22;23904;52.322;10.232;2023-04-25T07:45:42;9.30;98.30
38090;DHT22;23904;52.322;10.232;2023-04-25T07:48:08;9.30;98.20
38090;DHT22;23904;52.322;10.232;2023-04-25T07:50:34;9.00;99.20
38090;DHT22;23904;52.322;10.232;2023-04-25T07:52:59;9.00;99.90
38090;DHT22;23904;52.322;10.232;2023-04-25T07:55:25;9.20;99.40
38090;DHT22;23904;52.322;10.232;2023-04-25T07:57:51;9.40;99.60
38090;DHT22;23904;52.322;10.232;2023-04-25T08:00:16;9.50;99.00
38090;DHT22;23904;52.322;10.232;2023-04-25T08:02:42;9.50;99.60
38090;DHT22;23904;52.322;10.232;2023-04-25T08:05:08;9.30;99.00
38090;DHT22;23904;52.322;10.232;2023-04-25T08:07:37;9.00;99.90
38090;DHT22;23904;52.322;10.232;2023-04-25T08:10:05;9.00;99.90
38090;DHT22;23904;52.322;10.232;2023-04-25T08:12:31;9.00;99.90
38090;DHT22;23904;52.322;10.232;2023-04-25T08:14:57;8.90;99.90
38090;DHT22;23904;52.322;10.232;2023-04-25T08:17:22;8.70;99.90
38090;DHT22;23904;52.322;10.232;2023-04-25T08:19:48;8.70;99.90
38090;DHT22;23904;52.322;10.232;2023-04-25T08:22:14;8.70;99.90
38090;DHT22;23904;52.322;10.232;2023-04-25T08:24:41;8.80;99.90
38090;DHT22;23904;52.322;10.232;2023-04-25T08:27:06;8.80;99.90
38090;DHT22;23904;52.322;10.232;2023-04-25T08:29:33;9.20;99.90
38090;DHT22;23904;52.322;10.232;2023-04-25T08:31:59;9.40;99.90
38090;DHT22;23904;52.322;10.232;2023-04-25T08:34:25;9.70;99.90
38090;DHT22;23904;52.322;10.232;2023-04-25T08:36:51;9.80;99.90
38090;DHT22;23904;52.322;10.232;2023-04-25T08:39:17;9.90;99.70
38090;DHT22;23904;52.322;10.232;2023-04-25T08:41:42;10.10;98.80
38090;DHT22;23904;52.322;10.232;2023-04-25T08:44:10;9.80;96.10
38090;DHT22;23904;52.322;10.232;2023-04-25T08:46:38;9.90;95.60
38090;DHT22;23904;52.322;10.232;2023-04-25T08:49:08;9.90;96.70
38090;DHT22;23904;52.322;10.232;2023-04-25T08:51:45;10.50;96.70
38090;DHT22;23904;52.322;10.232;2023-04-25T08:54:16;11.80;93.50
38090;DHT22;23904;52.322;10.232;2023-04-25T08:56:47;12.90;88.70
38090;DHT22;23904;52.322;10.232;2023-04-25T08:59:13;13.20;82.60
38090;DHT22;23904;52.322;10.232;2023-04-25T09:01:39;13.10;81.00
38090;DHT22;23904;52.322;10.232;2023-04-25T09:04:04;12.40;82.30
38090;DHT22;23904;52.322;10.232;2023-04-25T09:06:31;12.00;82.00
38090;DHT22;23904;52.322;10.232;2023-04-25T09:09:07;11.40;85.90
38090;DHT22;23904;52.322;10.232;2023-04-25T09:11:35;11.10;87.80
38090;DHT22;23904;52.322;10.232;2023-04-25T09:14:18;10.70;90.10
38090;DHT22;23904;52.322;10.232;2023-04-25T09:19:30;10.90;90.80
38090;DHT22;23904;52.322;10.232;2023-04-25T09:22:04;10.50;91.10
38090;DHT22;23904;52.322;10.232;2023-04-25T09:24:40;10.20;91.00
38090;DHT22;23904;52.322;10.232;2023-04-25T09:27:10;9.90;91.30
38090;DHT22;23904;52.322;10.232;2023-04-25T09:29:40;9.50;92.40
38090;DHT22;23904;52.322;10.232;2023-04-25T09:32:15;9.40;94.00
38090;DHT22;23904;52.322;10.232;2023-04-25T09:34:44;9.40;93.50
38090;DHT22;23904;52.322;10.232;2023-04-25T09:37:17;9.30;94.00
38090;DHT22;23904;52.322;10.232;2023-04-25T09:39:52;9.20;95.30
38090;DHT22;23904;52.322;10.232;2023-04-25T09:42:22;9.30;95.20
38090;DHT22;23904;52.322;10.232;2023-04-25T09:44:52;9.30;95.00
38090;DHT22;23904;52.322;10.232;2023-04-25T09:47:18;9.80;95.40
38090;DHT22;23904;52.322;10.232;2023-04-25T09:49:46;10.40;93.80
38090;DHT22;23904;52.322;10.232;2023-04-25T09:52:20;11.00;93.70
38090;DHT22;23904;52.322;10.232;2023-04-25T09:54:48;11.90;92.20
38090;DHT22;23904;52.322;10.232;2023-04-25T09:57:17;11.80;90.70
38090;DHT22;23904;52.322;10.232;2023-04-25T09:59:47;11.60;89.70
38090;DHT22;23904;52.322;10.232;2023-04-25T10:02:16;12.20;87.80
38090;DHT22;23904;52.322;10.232;2023-04-25T10:04:46;12.20;86.10
38090;DHT22;23904;52.322;10.232;2023-04-25T10:07:14;12.00;85.40
38090;DHT22;23904;52.322;10.232;2023-04-25T10:09:40;12.50;81.70
38090;DHT22;23904;52.322;10.232;2023-04-25T10:12:07;13.40;78.10
38090;DHT22;23904;52.322;10.232;2023-04-25T10:14:34;14.70;71.00
38090;DHT22;23904;52.322;10.232;2023-04-25T10:17:00;15.80;67.00
38090;DHT22;23904;52.322;10.232;2023-04-25T10:19:27;16.90;61.80
38090;DHT22;23904;52.322;10.232;2023-04-25T10:22:06;16.40;58.40
38090;DHT22;23904;52.322;10.232;2023-04-25T10:24:38;15.80;59.60
38090;DHT22;23904;52.322;10.232;2023-04-25T10:27:05;15.20;61.90
38090;DHT22;23904;52.322;10.232;2023-04-25T10:29:31;14.50;63.10
38090;DHT22;23904;52.322;10.232;2023-04-25T10:31:57;13.40;64.70
38090;DHT22;23904;52.322;10.232;2023-04-25T10:34:43;13.00;66.90
38090;DHT22;23904;52.322;10.232;2023-04-25T10:37:12;12.80;69.50
38090;DHT22;23904;52.322;10.232;2023-04-25T10:39:42;12.50;68.90
38090;DHT22;23904;52.322;10.232;2023-04-25T10:42:08;12.20;70.00
38090;DHT22;23904;52.322;10.232;2023-04-25T10:44:34;11.70;70.80
38090;DHT22;23904;52.322;10.232;2023-04-25T10:47:02;11.30;74.00
38090;DHT22;23904;52.322;10.232;2023-04-25T10:52:15;11.30;75.80
38090;DHT22;23904;52.322;10.232;2023-04-25T10:54:48;11.80;75.80
38090;DHT22;23904;52.322;10.232;2023-04-25T10:57:40;12.10;73.20
38090;DHT22;23904;52.322;10.232;2023-04-25T11:02:49;11.70;73.30
38090;DHT22;23904;52.322;10.232;2023-04-25T11:05:37;11.50;75.00
38090;DHT22;23904;52.322;10.232;2023-04-25T11:08:11;10.80;76.60
38090;DHT22;23904;52.322;10.232;2023-04-25T11:10:37;10.70;79.80
38090;DHT22;23904;52.322;10.232;2023-04-25T11:13:03;10.50;80.40
38090;DHT22;23904;52.322;10.232;2023-04-25T11:15:28;10.40;81.80
38090;DHT22;23904;52.322;10.232;2023-04-25T11:17:55;10.30;83.00
38090;DHT22;23904;52.322;10.232;2023-04-25T11:20:21;10.30;85.30
38090;DHT22;23904;52.322;10.232;2023-04-25T11:22:47;10.40;85.10
38090;DHT22;23904;52.322;10.232;2023-04-25T11:25:15;10.30;84.30
38090;DHT22;23904;52.322;10.232;2023-04-25T11:27:58;10.30;84.90
38090;DHT22;23904;52.322;10.232;2023-04-25T11:30:25;10.30;84.60
38090;DHT22;23904;52.322;10.232;2023-04-25T11:32:52;10.40;85.20
38090;DHT22;23904;52.322;10.232;2023-04-25T11:35:19;10.50;86.20
38090;DHT22;23904;52.322;10.232;2023-04-25T11:37:45;10.50;85.20
38090;DHT22;23904;52.322;10.232;2023-04-25T11:40:11;10.70;84.40
38090;DHT22;23904;52.322;10.232;2023-04-25T11:42:45;10.90;85.00
38090;DHT22;23904;52.322;10.232;2023-04-25T11:45:11;11.20;82.20
38090;DHT22;23904;52.322;10.232;2023-04-25T11:47:38;11.40;78.80
38090;DHT22;23904;52.322;10.232;2023-04-25T11:50:05;12.10;79.70
38090;DHT22;23904;52.322;10.232;2023-04-25T11:52:40;12.50;75.90
38090;DHT22;23904;52.322;10.232;2023-04-25T11:55:08;13.40;74.40
38090;DHT22;23904;52.322;10.232;2023-04-25T11:57:42;13.80;71.10
38090;DHT22;23904;52.322;10.232;2023-04-25T12:00:13;13.60;68.80
38090;DHT22;23904;52.322;10.232;2023-04-25T12:02:42;13.80;69.40
38090;DHT22;23904;52.322;10.232;2023-04-25T12:05:09;13.90;65.60
38090;DHT22;23904;52.322;10.232;2023-04-25T12:07:36;13.90;65.10
38090;DHT22;23904;52.322;10.232;2023-04-25T12:10:06;13.60;64.60
38090;DHT22;23904;52.322;10.232;2023-04-25T12:12:37;13.50;65.70
38090;DHT22;23904;52.322;10.232;2023-04-25T12:15:17;13.10;63.90
38090;DHT22;23904;52.322;10.232;2023-04-25T12:17:50;12.30;69.60
38090;DHT22;23904;52.322;10.232;2023-04-25T12:20:21;12.00;72.30
38090;DHT22;23904;52.322;10.232;2023-04-25T12:22:49;11.60;73.90
38090;DHT22;23904;52.322;10.232;2023-04-25T12:25:39;11.20;76.70
38090;DHT22;23904;52.322;10.232;2023-04-25T12:28:24;10.90;79.40
38090;DHT22;23904;52.322;10.232;2023-04-25T12:31:06;10.70;81.70
38090;DHT22;23904;52.322;10.232;2023-04-25T12:33:36;10.20;83.20
38090;DHT22;23904;52.322;10.232;2023-04-25T12:36:03;9.90;87.90
38090;DHT22;23904;52.322;10.232;2023-04-25T12:38:38;9.80;90.10
38090;DHT22;23904;52.322;10.232;2023-04-25T12:41:05;9.70;90.30
38090;DHT22;23904;52.322;10.232;2023-04-25T12:43:31;9.80;90.30
38090;DHT22;23904;52.322;10.232;2023-04-25T12:45:57;9.70;90.50
38090;DHT22;23904;52.322;10.232;2023-04-25T12:48:22;10.00;90.80
38090;DHT22;23904;52.322;10.232;2023-04-25T12:50:49;10.40;90.50
38090;DHT22;23904;52.322;10.232;2023-04-25T12:53:16;11.20;89.90
38090;DHT22;23904;52.322;10.232;2023-04-25T12:55:42;12.40;87.20
38090;DHT22;23904;52.322;10.232;2023-04-25T12:58:08;13.60;81.10
38090;DHT22;23904;52.322;10.232;2023-04-25T13:00:34;14.10;78.80
38090;DHT22;23904;52.322;10.232;2023-04-25T13:02:59;14.80;77.90
38090;DHT22;23904;52.322;10.232;2023-04-25T13:05:25;14.90;75.60
38090;DHT22;23904;52.322;10.232;2023-04-25T13:07:51;14.40;74.60
38090;DHT22;23904;52.322;10.232;2023-04-25T13:10:17;13.90;76.30
38090;DHT22;23904;52.322;10.232;2023-04-25T13:12:43;13.50;77.00
38090;DHT22;23904;52.322;10.232;2023-04-25T13:15:09;13.30;78.60
38090;DHT22;23904;52.322;10.232;2023-04-25T13:17:37;12.80;78.00
38090;DHT22;23904;52.322;10.232;2023-04-25T13:20:04;12.10;78.50
38090;DHT22;23904;52.322;10.232;2023-04-25T13:22:38;11.60;80.40
38090;DHT22;23904;52.322;10.232;2023-04-25T13:25:05;11.10;82.20
38090;DHT22;23904;52.322;10.232;2023-04-25T13:27:32;10.90;83.70
38090;DHT22;23904;52.322;10.232;2023-04-25T13:30:03;10.60;83.70
38090;DHT22;23904;52.322;10.232;2023-04-25T13:32:36;10.30;82.40
38090;DHT22;23904;52.322;10.232;2023-04-25T13:35:08;10.30;82.00
38090;DHT22;23904;52.322;10.232;2023-04-25T13:37:35;10.20;79.50
38090;DHT22;23904;52.322;10.232;2023-04-25T13:40:01;10.30;77.20
38090;DHT22;23904;52.322;10.232;2023-04-25T13:42:30;10.60;72.60
38090;DHT22;23904;52.322;10.232;2023-04-25T13:44:56;10.90;71.90
38090;DHT22;23904;52.322;10.232;2023-04-25T13:47:22;11.00;72.20
38090;DHT22;23904;52.322;10.232;2023-04-25T13:49:49;10.80;72.00
38090;DHT22;23904;52.322;10.232;2023-04-25T13:52:15;10.70;72.70
38090;DHT22;23904;52.322;10.232;2023-04-25T13:54:40;10.50;74.80
38090;DHT22;23904;52.322;10.232;2023-04-25T13:57:06;10.40;76.60
38090;DHT22;23904;52.322;10.232;2023-04-25T13:59:32;10.40;78.00
38090;DHT22;23904;52.322;10.232;2023-04-25T14:01:57;10.30;78.30
38090;DHT22;23904;52.322;10.232;2023-04-25T14:04:23;10.20;79.70
38090;DHT22;23904;52.322;10.232;2023-04-25T14:06:49;10.20;80.60
38090;DHT22;23904;52.322;10.232;2023-04-25T14:09:15;10.20;82.70
38090;DHT22;23904;52.322;10.232;2023-04-25T14:11:41;10.20;83.60
38090;DHT22;23904;52.322;10.232;2023-04-25T14:14:06;10.30;84.90
38090;DHT22;23904;52.322;10.232;2023-04-25T14:16:32;10.50;85.80
38090;DHT22;23904;52.322;10.232;2023-04-25T14:18:58;10.60;87.90
38090;DHT22;23904;52.322;10.232;2023-04-25T14:21:24;10.80;86.40
38090;DHT22;23904;52.322;10.232;2023-04-25T14:23:50;10.90;86.60
38090;DHT22;23904;52.322;10.232;2023-04-25T14:26:16;11.40;87.70
38090;DHT22;23904;52.322;10.232;2023-04-25T14:28:41;11.70;86.00
38090;DHT22;23904;52.322;10.232;2023-04-25T14:31:07;11.50;82.50
38090;DHT22;23904;52.322;10.232;2023-04-25T14:33:32;11.10;84.50
38090;DHT22;23904;52.322;10.232;2023-04-25T14:35:59;11.00;85.80
38090;DHT22;23904;52.322;10.232;2023-04-25T14:38:24;10.80;86.10
38090;DHT22;23904;52.322;10.232;2023-04-25T14:40:51;10.60;87.70
38090;DHT22;23904;52.322;10.232;2023-04-25T14:43:17;10.50;89.20
38090;DHT22;23904;52.322;10.232;2023-04-25T14:45:42;10.50;90.20
38090;DHT22;23904;52.322;10.232;2023-04-25T14:48:08;10.30;92.00
38090;DHT22;23904;52.322;10.232;2023-04-25T14:50:33;9.80;95.30
38090;DHT22;23904;52.322;10.232;2023-04-25T14:52:59;9.50;97.00
38090;DHT22;23904;52.322;10.232;2023-04-25T14:55:26;9.40;98.30
38090;DHT22;23904;52.322;10.232;2023-04-25T14:57:53;9.50;98.70
38090;DHT22;23904;52.322;10.232;2023-04-25T15:00:20;9.60;97.60
38090;DHT22;23904;52.322;10.232;2023-04-25T15:02:50;9.70;96.90
38090;DHT22;23904;52.322;10.232;2023-04-25T15:05:16;9.90;95.70
38090;DHT22;23904;52.322;10.232;2023-04-25T15:07:43;10.10;94.40
38090;DHT22;23904;52.322;10.232;2023-04-25T15:10:09;10.20;94.30
38090;DHT22;23904;52.322;10.232;2023-04-25T15:12:44;10.50;93.20
38090;DHT22;23904;52.322;10.232;2023-04-25T15:15:11;10.80;92.20
38090;DHT22;23904;52.322;10.232;2023-04-25T15:17:43;10.90;92.60
38090;DHT22;23904;52.322;10.232;2023-04-25T15:20:10;11.10;92.00
38090;DHT22;23904;52.322;10.232;2023-04-25T15:22:42;11.10;91.80
38090;DHT22;23904;52.322;10.232;2023-04-25T15:25:09;10.90;91.10
38090;DHT22;23904;52.322;10.232;2023-04-25T15:27:36;10.70;91.70
38090;DHT22;23904;52.322;10.232;2023-04-25T15:30:06;10.60;92.40
38090;DHT22;23904;52.322;10.232;2023-04-25T15:32:34;10.40;92.60
38090;DHT22;23904;52.322;10.232;2023-04-25T15:35:03;10.20;94.20